CheckWX is a tool to help pilots better visualize weather data.  It is not intended as a substitute for an official pre-flight weather briefing.

20:13:49 UTC

KGKT METAR
Gatlinburg-Pigeon Forge Airport
Sevierville, Tennessee, USA
Current

19 mins ago

KGKT 231955Z AUTO 30007G16KT 220V350 10SM CLR 27/10 A3002 RMK A01
Observed
Apr-23 @ 19:55 UTC
Wind
  • 300° at 7 KTS
  • Gusting to 16 KTS
Visibility
10 SM
Flight Rules
VFR
Cloud Levels
  • Clear skies
Temperature
27°C / 81°F
Dewpoint
10°C / 50°F
Humidity
34%
Altimeter
30.02" Hg
Pressure
1016.62 hPa
Previous

39 mins ago

KGKT 231935Z AUTO 28009G14KT 10SM CLR 27/11 A3003 RMK A01
Observed
Apr-23 @ 19:35 UTC
Wind
  • 280° at 9 KTS
  • Gusting to 14 KTS
Visibility
10 SM
Flight Rules
VFR
Cloud Levels
  • Clear skies
Temperature
27°C / 81°F
Dewpoint
11°C / 52°F
Humidity
37%
Altimeter
30.03" Hg
Pressure
1016.92 hPa
Previous

59 mins ago

KGKT 231915Z AUTO 28010G16KT 10SM CLR 27/11 A3004 RMK A01
Observed
Apr-23 @ 19:15 UTC
Wind
  • 280° at 10 KTS
  • Gusting to 16 KTS
Visibility
10 SM
Flight Rules
VFR
Cloud Levels
  • Clear skies
Temperature
27°C / 81°F
Dewpoint
11°C / 52°F
Humidity
37%
Altimeter
30.04" Hg
Pressure
1017.32 hPa